CYTZ/YTZ METAR and TAF weather

Enter ICAO airport designator
Station Type Date Time Source
CYTZ METAR 2020/07/13 14:00 UTC NOAA

CYTZ 131400Z AUTO 30007KT 260V030 9SM FEW070 OVC091 22/18 A2985 RMK SLP109 DENSITY ALT 1100FT


Station Type Date Time Source
CYTZ Decoded METAR 2020/07/13 14:00 UTC NOAA

Toronto Island Airport Automated Reporting Station, Canada (CYTZ) 43-38N 079-24W
Jul 13, 2020 - 10:00 AM EDT / 2020.07.13 1400 UTC
Wind: from the WNW (300 degrees) at 8 MPH (7 KT) (direction variable):0
Visibility: 9 mile(s):0
Sky conditions: overcast
Temperature: 71 F (22 C)
Dew Point: 64 F (18 C)
Relative Humidity: 78%
Pressure (altimeter): 29.85 in. Hg (1010 hPa)
ob: CYTZ 131400Z AUTO 30007KT 260V030 9SM FEW070 OVC091 22/18 A2985 RMK SLP109 DENSITY ALT 1100FT
cycle: 14

Station Type Date Time Source
CYTZ TAF 2020/07/13 14:43 UTC NOAA

TAF CYTZ 131338Z 1314/1414 30008KT P6SM BKN050
FM131600 20010KT P6SM BKN040
TEMPO 1316/1323 P6SM -SHRA PROB30 1317/1322 VRB15G25KT 2SM TSRA BR BKN020 OVC040CB
FM140000 33008KT P6SM BKN040
FM140300 33008KT P6SM SCT040
RMK FCST BASED ON AUTO OBS. NXT FCST BY 132000Z

Example: see airport list